Terminal Aerodrome Forecast
Issued by NWS Topeka, KS

Home | Current Version | Previous Version | Text Only | Print | Product List | Glossary Off
Versions: 1 2 3 4 5 6 7 8 9 10 11 12 13 14 15 16 17 18

328
FTUS43 KTOP 060534
TAFTOP
TAF
KTOP 060534Z 0606/0706 31002KT P6SM SCT025 BKN100
     FM061800 26008KT P6SM BKN250
     FM070000 20005KT P6SM SCT250=

USA.gov is the U.S. government's official web portal to all federal, state and local government web resources and services.